sensor_id;sensor_type;location;lat;lon;timestamp;pressure;altitude;pressure_sealevel;temperature;humidity
76044;BME280;64740;34.694;33.088;2023-05-07T00:01:51;1033.9;;;22;49.9
76044;BME280;64740;34.694;33.088;2023-05-07T00:06:41;1033.9;;;22;50
76044;BME280;64740;34.694;33.088;2023-05-07T00:11:19;1033.8;;;22.1;49.7
76044;BME280;64740;34.694;33.088;2023-05-07T00:16:53;1033.8;;;22.1;49.8
76044;BME280;64740;34.694;33.088;2023-05-07T00:21:19;1033.8;;;22.2;49.6
76044;BME280;64740;34.694;33.088;2023-05-07T00:26:39;1033.8;;;22.2;49.4
76044;BME280;64740;34.694;33.088;2023-05-07T00:31:37;1033.8;;;22.2;49.4
76044;BME280;64740;34.694;33.088;2023-05-07T00:36:19;1033.8;;;22.2;49.4
76044;BME280;64740;34.694;33.088;2023-05-07T00:42:01;1033.8;;;22.3;49.2
76044;BME280;64740;34.694;33.088;2023-05-07T00:46:51;1033.7;;;22.3;49.1
76044;BME280;64740;34.694;33.088;2023-05-07T00:51:19;1033.7;;;22.2;49.1
76044;BME280;64740;34.694;33.088;2023-05-07T00:57:02;1033.7;;;22.1;49
76044;BME280;64740;34.694;33.088;2023-05-07T01:01:41;1033.7;;;22.1;49.1
76044;BME280;64740;34.694;33.088;2023-05-07T01:06:31;1033.7;;;22.1;49.6
76044;BME280;64740;34.694;33.088;2023-05-07T01:11:31;1033.7;;;22.1;50.7
76044;BME280;64740;34.694;33.088;2023-05-07T01:17:01;1033.6;;;22.1;51.5
76044;BME280;64740;34.694;33.088;2023-05-07T01:21:19;1033.6;;;22;52.2
76044;BME280;64740;34.694;33.088;2023-05-07T01:27:01;1033.6;;;22;52.5
76044;BME280;64740;34.694;33.088;2023-05-07T01:32:00;1033.6;;;21.9;52.6
76044;BME280;64740;34.694;33.088;2023-05-07T01:36:53;1033.7;;;21.8;53.4
76044;BME280;64740;34.694;33.088;2023-05-07T01:41:37;1033.6;;;21.7;54.1
76044;BME280;64740;34.694;33.088;2023-05-07T01:46:53;1033.6;;;21.6;54.9
76044;BME280;64740;34.694;33.088;2023-05-07T01:51:49;1033.6;;;21.6;55.2
76044;BME280;64740;34.694;33.088;2023-05-07T01:56:49;1033.7;;;21.5;55.6
76044;BME280;64740;34.694;33.088;2023-05-07T02:01:41;1033.7;;;21.5;55.6
76044;BME280;64740;34.694;33.088;2023-05-07T02:07:01;1033.7;;;21.5;55.8
76044;BME280;64740;34.694;33.088;2023-05-07T02:11:49;1033.6;;;21.5;56
76044;BME280;64740;34.694;33.088;2023-05-07T02:16:19;1033.7;;;21.5;56
76044;BME280;64740;34.694;33.088;2023-05-07T02:21:43;1033.7;;;21.6;55.9
76044;BME280;64740;34.694;33.088;2023-05-07T02:26:49;1033.8;;;21.5;56.3
76044;BME280;64740;34.694;33.088;2023-05-07T02:31:19;1033.8;;;21.5;56.9
76044;BME280;64740;34.694;33.088;2023-05-07T02:36:53;1033.8;;;21.5;57
76044;BME280;64740;34.694;33.088;2023-05-07T02:41:53;1033.7;;;21.5;56.9
76044;BME280;64740;34.694;33.088;2023-05-07T02:46:19;1033.8;;;21.5;57
76044;BME280;64740;34.694;33.088;2023-05-07T02:52:03;1033.8;;;21.5;56.9
76044;BME280;64740;34.694;33.088;2023-05-07T02:56:19;1033.9;;;21.5;56.6
76044;BME280;64740;34.694;33.088;2023-05-07T03:02:01;1034;;;21.6;56.7
76044;BME280;64740;34.694;33.088;2023-05-07T03:06:49;1034;;;21.6;56.7
76044;BME280;64740;34.694;33.088;2023-05-07T03:11:41;1034.1;;;21.6;56.9
76044;BME280;64740;34.694;33.088;2023-05-07T03:16:41;1034.1;;;21.5;57.1
76044;BME280;64740;34.694;33.088;2023-05-07T03:21:21;1034.2;;;21.5;57.1
76044;BME280;64740;34.694;33.088;2023-05-07T03:26:19;1034.2;;;21.5;57.4
76044;BME280;64740;34.694;33.088;2023-05-07T03:31:41;1034.2;;;21.5;57.4
76044;BME280;64740;34.694;33.088;2023-05-07T03:36:19;1034.3;;;21.5;57.7
76044;BME280;64740;34.694;33.088;2023-05-07T03:41:32;1034.3;;;21.5;58.2
76044;BME280;64740;34.694;33.088;2023-05-07T03:47:01;1034.3;;;21.5;58.3
76044;BME280;64740;34.694;33.088;2023-05-07T03:51:53;1034.3;;;21.7;58.2
76044;BME280;64740;34.694;33.088;2023-05-07T03:56:19;1034.3;;;21.8;58.5
76044;BME280;64740;34.694;33.088;2023-05-07T04:02:01;1034.4;;;21.8;58.3
76044;BME280;64740;34.694;33.088;2023-05-07T04:06:29;1034.4;;;21.9;58.3
76044;BME280;64740;34.694;33.088;2023-05-07T04:11:29;1034.4;;;22.1;57.9
76044;BME280;64740;34.694;33.088;2023-05-07T04:16:49;1034.5;;;22.2;57.3
76044;BME280;64740;34.694;33.088;2023-05-07T04:22:01;1034.6;;;22.3;57.4
76044;BME280;64740;34.694;33.088;2023-05-07T04:26:31;1034.6;;;22.4;57.1
76044;BME280;64740;34.694;33.088;2023-05-07T04:32:01;1034.6;;;22.5;56.8
76044;BME280;64740;34.694;33.088;2023-05-07T04:37:01;1034.6;;;22.5;56.6
76044;BME280;64740;34.694;33.088;2023-05-07T04:41:53;1034.7;;;22.6;56.8
76044;BME280;64740;34.694;33.088;2023-05-07T04:46:31;1034.7;;;22.6;57.6
76044;BME280;64740;34.694;33.088;2023-05-07T04:51:21;1034.7;;;22.6;58
76044;BME280;64740;34.694;33.088;2023-05-07T04:56:49;1034.8;;;22.7;57.3
76044;BME280;64740;34.694;33.088;2023-05-07T05:01:49;1034.8;;;22.8;57.3
76044;BME280;64740;34.694;33.088;2023-05-07T05:06:31;1034.8;;;23;56.8
76044;BME280;64740;34.694;33.088;2023-05-07T05:12:01;1034.8;;;23.2;56.4
76044;BME280;64740;34.694;33.088;2023-05-07T05:16:49;1034.8;;;23.3;55.3
76044;BME280;64740;34.694;33.088;2023-05-07T05:21:19;1034.8;;;23.4;54.8
76044;BME280;64740;34.694;33.088;2023-05-07T05:26:41;1034.8;;;23.6;53.4
76044;BME280;64740;34.694;33.088;2023-05-07T05:31:49;1034.8;;;23.6;52.5
76044;BME280;64740;34.694;33.088;2023-05-07T05:36:19;1034.9;;;23.6;52.1
76044;BME280;64740;34.694;33.088;2023-05-07T05:41:53;1034.9;;;23.7;51.2
76044;BME280;64740;34.694;33.088;2023-05-07T05:46:53;1034.9;;;23.8;51
76044;BME280;64740;34.694;33.088;2023-05-07T05:51:31;1034.9;;;23.9;50.8
76044;BME280;64740;34.694;33.088;2023-05-07T05:57:01;1034.9;;;24.1;50.6
76044;BME280;64740;34.694;33.088;2023-05-07T06:01:41;1035;;;24.1;50.1
76044;BME280;64740;34.694;33.088;2023-05-07T06:06:19;1035;;;24;50
76044;BME280;64740;34.694;33.088;2023-05-07T06:11:49;1035;;;24.1;50.4
76044;BME280;64740;34.694;33.088;2023-05-07T06:17:03;1035;;;24.2;51
76044;BME280;64740;34.694;33.088;2023-05-07T06:21:43;1035.1;;;24.2;52
76044;BME280;64740;34.694;33.088;2023-05-07T06:26:51;1035.2;;;24.1;52
76044;BME280;64740;34.694;33.088;2023-05-07T06:31:49;1035.2;;;24;51.1
76044;BME280;64740;34.694;33.088;2023-05-07T06:36:57;1035.2;;;24;52.6
76044;BME280;64740;34.694;33.088;2023-05-07T06:41:35;1035.1;;;24;53.2
76044;BME280;64740;34.694;33.088;2023-05-07T06:46:29;1035.2;;;24;52.9
76044;BME280;64740;34.694;33.088;2023-05-07T06:52:05;1035.2;;;23.9;51.4
76044;BME280;64740;34.694;33.088;2023-05-07T06:57:05;1035.2;;;23.9;51.8
76044;BME280;64740;34.694;33.088;2023-05-07T07:01:19;1035.2;;;23.9;51.8
76044;BME280;64740;34.694;33.088;2023-05-07T07:07:05;1035.2;;;23.9;51.7
76044;BME280;64740;34.694;33.088;2023-05-07T07:11:31;1035.3;;;24.1;51.9
76044;BME280;64740;34.694;33.088;2023-05-07T07:16:19;1035.3;;;24.2;51.7
76044;BME280;64740;34.694;33.088;2023-05-07T07:21:53;1035.3;;;24.2;51.5
76044;BME280;64740;34.694;33.088;2023-05-07T07:26:49;1035.4;;;24.3;52
76044;BME280;64740;34.694;33.088;2023-05-07T07:31:19;1035.4;;;24.4;51.9
76044;BME280;64740;34.694;33.088;2023-05-07T07:37:05;1035.4;;;24.4;51.2
76044;BME280;64740;34.694;33.088;2023-05-07T07:42:05;1035.4;;;24.4;51.2
76044;BME280;64740;34.694;33.088;2023-05-07T07:46:57;1035.5;;;24.5;51.2
76044;BME280;64740;34.694;33.088;2023-05-07T07:51:31;1035.5;;;24.7;51.1
76044;BME280;64740;34.694;33.088;2023-05-07T07:56:55;1035.6;;;24.9;51.1
76044;BME280;64740;34.694;33.088;2023-05-07T08:01:51;1035.6;;;24.9;51
76044;BME280;64740;34.694;33.088;2023-05-07T08:06:39;1035.7;;;24.9;51.2
76044;BME280;64740;34.694;33.088;2023-05-07T08:11:19;1035.7;;;24.7;51.8
76044;BME280;64740;34.694;33.088;2023-05-07T08:17:06;1035.7;;;24.6;52.9
76044;BME280;64740;34.694;33.088;2023-05-07T08:21:53;1035.8;;;24.5;53.2
76044;BME280;64740;34.694;33.088;2023-05-07T08:26:39;1035.8;;;24.4;53.6
76044;BME280;64740;34.694;33.088;2023-05-07T08:31:45;1035.8;;;24.2;53.8
76044;BME280;64740;34.694;33.088;2023-05-07T08:36:49;1035.8;;;24.1;53.7
76044;BME280;64740;34.694;33.088;2023-05-07T08:41:19;1035.8;;;24;53.8
76044;BME280;64740;34.694;33.088;2023-05-07T08:46:57;1035.8;;;24.2;53.6
76044;BME280;64740;34.694;33.088;2023-05-07T08:51:57;1035.8;;;24.5;53.1
76044;BME280;64740;34.694;33.088;2023-05-07T08:56:31;1035.7;;;24.8;52.7
76044;BME280;64740;34.694;33.088;2023-05-07T09:02:04;1035.7;;;25.1;52.6
76044;BME280;64740;34.694;33.088;2023-05-07T09:06:41;1035.7;;;25.2;52.2
76044;BME280;64740;34.694;33.088;2023-05-07T09:11:31;1035.7;;;25.3;52
76044;BME280;64740;34.694;33.088;2023-05-07T09:16:51;1035.7;;;25.4;52
76044;BME280;64740;34.694;33.088;2023-05-07T09:22:04;1035.6;;;25.4;52.1
76044;BME280;64740;34.694;33.088;2023-05-07T09:26:21;1035.5;;;25.5;51.7
76044;BME280;64740;34.694;33.088;2023-05-07T09:31:54;1035.6;;;25.5;50.5
76044;BME280;64740;34.694;33.088;2023-05-07T09:36:49;1035.6;;;25.4;50
76044;BME280;64740;34.694;33.088;2023-05-07T09:41:55;1035.5;;;25.5;49.9
76044;BME280;64740;34.694;33.088;2023-05-07T09:46:31;1035.5;;;25.5;49.6
76044;BME280;64740;34.694;33.088;2023-05-07T09:51:21;1035.5;;;25.5;48.9
76044;BME280;64740;34.694;33.088;2023-05-07T09:57:06;1035.5;;;25.5;49
76044;BME280;64740;34.694;33.088;2023-05-07T10:02:04;1035.5;;;25.5;48.8
76044;BME280;64740;34.694;33.088;2023-05-07T10:06:42;1035.5;;;25.6;48.1
76044;BME280;64740;34.694;33.088;2023-05-07T10:11:53;1035.5;;;25.6;48.2
76044;BME280;64740;34.694;33.088;2023-05-07T10:16:39;1035.5;;;25.8;48.3
76044;BME280;64740;34.694;33.088;2023-05-07T10:21:21;1035.5;;;26;48.2
76044;BME280;64740;34.694;33.088;2023-05-07T10:26:48;1035.5;;;26.2;47.2
76044;BME280;64740;34.694;33.088;2023-05-07T10:32:08;1035.5;;;26.3;47.1
76044;BME280;64740;34.694;33.088;2023-05-07T10:36:19;1035.4;;;26.6;47
76044;BME280;64740;34.694;33.088;2023-05-07T10:41:20;1035.4;;;26.7;46.3
76044;BME280;64740;34.694;33.088;2023-05-07T10:47:04;1035.4;;;26.7;46.2
76044;BME280;64740;34.694;33.088;2023-05-07T10:51:20;1035.4;;;26.8;46.1
76044;BME280;64740;34.694;33.088;2023-05-07T10:56:24;1035.4;;;27.1;45.6
76044;BME280;64740;34.694;33.088;2023-05-07T11:01:58;1035.4;;;27.2;45.4
76044;BME280;64740;34.694;33.088;2023-05-07T11:07:24;1035.5;;;27.3;45.1
76044;BME280;64740;34.694;33.088;2023-05-07T11:11:50;1035.5;;;27.2;45.2
76044;BME280;64740;34.694;33.088;2023-05-07T11:16:20;1035.5;;;26.8;45.7
76044;BME280;64740;34.694;33.088;2023-05-07T11:21:34;1035.5;;;27.1;44.7
76044;BME280;64740;34.694;33.088;2023-05-07T11:26:54;1035.5;;;27.5;44.3
76044;BME280;64740;34.694;33.088;2023-05-07T11:31:32;1035.4;;;27.8;44
76044;BME280;64740;34.694;33.088;2023-05-07T11:36:46;1035.4;;;28.3;43.5
76044;BME280;64740;34.694;33.088;2023-05-07T11:41:38;1035.4;;;28.2;42.5
76044;BME280;64740;34.694;33.088;2023-05-07T11:46:38;1035.4;;;27.9;43.6
76044;BME280;64740;34.694;33.088;2023-05-07T11:52:06;1035.4;;;27.9;43.6
76044;BME280;64740;34.694;33.088;2023-05-07T11:56:58;1035.3;;;28;43.2
76044;BME280;64740;34.694;33.088;2023-05-07T12:01:46;1035.3;;;28;43.8
76044;BME280;64740;34.694;33.088;2023-05-07T12:07:06;1035.3;;;28;43.9
76044;BME280;64740;34.694;33.088;2023-05-07T12:11:42;1035.2;;;28;44
76044;BME280;64740;34.694;33.088;2023-05-07T12:16:20;1035.2;;;28.1;44.1
76044;BME280;64740;34.694;33.088;2023-05-07T12:21:52;1035.2;;;28.2;43.9
76044;BME280;64740;34.694;33.088;2023-05-07T12:27:08;1035.2;;;28.3;44.1
76044;BME280;64740;34.694;33.088;2023-05-07T12:31:20;1035.2;;;28.4;43.5
76044;BME280;64740;34.694;33.088;2023-05-07T12:37:06;1035.1;;;28.4;43.6
76044;BME280;64740;34.694;33.088;2023-05-07T12:41:58;1035;;;28.6;42.7
76044;BME280;64740;34.694;33.088;2023-05-07T12:46:58;1035;;;28.7;42.4
76044;BME280;64740;34.694;33.088;2023-05-07T12:51:50;1035;;;28.7;42.7
76044;BME280;64740;34.694;33.088;2023-05-07T12:57:03;1035;;;28.7;42.5
76044;BME280;64740;34.694;33.088;2023-05-07T13:01:48;1035;;;28.7;42.4
76044;BME280;64740;34.694;33.088;2023-05-07T13:06:50;1035;;;28.9;42.2
76044;BME280;64740;34.694;33.088;2023-05-07T13:11:20;1035.1;;;28.9;41.8
76044;BME280;64740;34.694;33.088;2023-05-07T13:17:06;1035.1;;;28.7;42.1
76044;BME280;64740;34.694;33.088;2023-05-07T13:21:54;1035.1;;;28.5;42.3
76044;BME280;64740;34.694;33.088;2023-05-07T13:26:20;1035.1;;;28.2;42.8
76044;BME280;64740;34.694;33.088;2023-05-07T13:31:46;1035;;;27.8;43.4
76044;BME280;64740;34.694;33.088;2023-05-07T13:36:50;1035;;;27.8;43.9
76044;BME280;64740;34.694;33.088;2023-05-07T13:41:26;1035;;;27.9;43.5
76044;BME280;64740;34.694;33.088;2023-05-07T13:46:58;1035.1;;;28.1;43.1
76044;BME280;64740;34.694;33.088;2023-05-07T13:51:58;1035.1;;;27.9;43.8
76044;BME280;64740;34.694;33.088;2023-05-07T13:56:32;1035.1;;;28.1;44
76044;BME280;64740;34.694;33.088;2023-05-07T14:02:08;1035.1;;;28.1;44.2
76044;BME280;64740;34.694;33.088;2023-05-07T14:06:20;1035.1;;;27.8;44.7
76044;BME280;64740;34.694;33.088;2023-05-07T14:11:34;1035;;;27.4;45.4
76044;BME280;64740;34.694;33.088;2023-05-07T14:17:08;1035.1;;;27.5;45.6
76044;BME280;64740;34.694;33.088;2023-05-07T14:21:52;1035.1;;;27.8;45.5
76044;BME280;64740;34.694;33.088;2023-05-07T14:26:34;1035.1;;;28;44.9
76044;BME280;64740;34.694;33.088;2023-05-07T14:31:54;1035.1;;;28.1;44.8
76044;BME280;64740;34.694;33.088;2023-05-07T14:37:06;1035;;;28.1;44.9
76044;BME280;64740;34.694;33.088;2023-05-07T14:42:00;1035.1;;;28.2;44.7
76044;BME280;64740;34.694;33.088;2023-05-07T14:46:26;1035;;;28.1;44.8
76044;BME280;64740;34.694;33.088;2023-05-07T14:51:32;1035.1;;;27.9;44.9
76044;BME280;64740;34.694;33.088;2023-05-07T14:57:06;1035.1;;;27.9;44.7
76044;BME280;64740;34.694;33.088;2023-05-07T15:02:04;1035.1;;;27.9;44.4
76044;BME280;64740;34.694;33.088;2023-05-07T15:06:32;1035.1;;;28.1;44.3
76044;BME280;64740;34.694;33.088;2023-05-07T15:12:04;1035.1;;;27.9;44.8
76044;BME280;64740;34.694;33.088;2023-05-07T15:16:42;1035.1;;;27.8;44.7
76044;BME280;64740;34.694;33.088;2023-05-07T15:21:30;1035;;;27.6;44.7
76044;BME280;64740;34.694;33.088;2023-05-07T15:26:52;1035.1;;;27.3;45.2
76044;BME280;64740;34.694;33.088;2023-05-07T15:32:06;1035.1;;;27.1;45.7
76044;BME280;64740;34.694;33.088;2023-05-07T15:36:30;1035.1;;;27.1;45.9
76044;BME280;64740;34.694;33.088;2023-05-07T15:42:06;1035.1;;;26.9;46.4
76044;BME280;64740;34.694;33.088;2023-05-07T15:47:06;1035.1;;;26.5;46.9
76044;BME280;64740;34.694;33.088;2023-05-07T15:51:48;1035.1;;;26.2;47.6
76044;BME280;64740;34.694;33.088;2023-05-07T15:56:20;1035.2;;;25.9;47.8
76044;BME280;64740;34.694;33.088;2023-05-07T16:01:58;1035.2;;;25.7;48
76044;BME280;64740;34.694;33.088;2023-05-07T16:06:40;1035.2;;;25.4;48.6
76044;BME280;64740;34.694;33.088;2023-05-07T16:11:50;1035.3;;;25.2;49.1
76044;BME280;64740;34.694;33.088;2023-05-07T16:16:42;1035.4;;;24.9;49.7
76044;BME280;64740;34.694;33.088;2023-05-07T16:22:04;1035.3;;;24.7;51.1
76044;BME280;64740;34.694;33.088;2023-05-07T16:26:54;1035.4;;;24.6;51.3
76044;BME280;64740;34.694;33.088;2023-05-07T16:31:20;1035.4;;;24.5;50.7
76044;BME280;64740;34.694;33.088;2023-05-07T16:36:30;1035.5;;;24.4;50.7
76044;BME280;64740;34.694;33.088;2023-05-07T16:41:50;1035.5;;;24.3;51.7
76044;BME280;64740;34.694;33.088;2023-05-07T16:46:20;1035.5;;;24.2;52.6
76044;BME280;64740;34.694;33.088;2023-05-07T16:51:58;1035.6;;;24.1;53
76044;BME280;64740;34.694;33.088;2023-05-07T16:56:48;1035.6;;;24;53.2
76044;BME280;64740;34.694;33.088;2023-05-07T17:01:20;1035.6;;;24;53.5
76044;BME280;64740;34.694;33.088;2023-05-07T17:07:08;1035.6;;;23.8;53.5
76044;BME280;64740;34.694;33.088;2023-05-07T17:11:58;1035.7;;;23.8;53.8
76044;BME280;64740;34.694;33.088;2023-05-07T17:16:20;1035.8;;;23.7;54.3
76044;BME280;64740;34.694;33.088;2023-05-07T17:21:42;1035.8;;;23.7;54.3
76044;BME280;64740;34.694;33.088;2023-05-07T17:27:06;1035.8;;;23.7;54.2
76044;BME280;64740;34.694;33.088;2023-05-07T17:31:44;1035.9;;;23.6;54.3
76044;BME280;64740;34.694;33.088;2023-05-07T17:36:54;1035.9;;;23.6;54.4
76044;BME280;64740;34.694;33.088;2023-05-07T17:41:22;1036;;;23.6;54.5
76044;BME280;64740;34.694;33.088;2023-05-07T17:46:58;1036.1;;;23.6;54.5
76044;BME280;64740;34.694;33.088;2023-05-07T17:51:20;1036.1;;;23.6;54.5
76044;BME280;64740;34.694;33.088;2023-05-07T17:56:32;1036.1;;;23.6;54.6
76044;BME280;64740;34.694;33.088;2023-05-07T18:02:06;1036.1;;;23.6;54.6
76044;BME280;64740;34.694;33.088;2023-05-07T18:07:06;1036.1;;;23.5;54.8
76044;BME280;64740;34.694;33.088;2023-05-07T18:11:46;1036.2;;;23.5;54.9
76044;BME280;64740;34.694;33.088;2023-05-07T18:17:06;1036.3;;;23.4;55
76044;BME280;64740;34.694;33.088;2023-05-07T18:21:30;1036.3;;;23.4;55
76044;BME280;64740;34.694;33.088;2023-05-07T18:26:20;1036.3;;;23.4;55
76044;BME280;64740;34.694;33.088;2023-05-07T18:31:20;1036.3;;;23.4;55
76044;BME280;64740;34.694;33.088;2023-05-07T18:37:06;1036.4;;;23.4;55
76044;BME280;64740;34.694;33.088;2023-05-07T18:41:32;1036.4;;;23.4;54.9
76044;BME280;64740;34.694;33.088;2023-05-07T18:46:38;1036.4;;;23.4;55
76044;BME280;64740;34.694;33.088;2023-05-07T18:52:06;1036.4;;;23.4;54.9
76044;BME280;64740;34.694;33.088;2023-05-07T18:56:30;1036.4;;;23.3;54.9
76044;BME280;64740;34.694;33.088;2023-05-07T19:01:20;1036.4;;;23.3;54.9
76044;BME280;64740;34.694;33.088;2023-05-07T19:06:32;1036.4;;;23.3;54.8
76044;BME280;64740;34.694;33.088;2023-05-07T19:12:08;1036.4;;;23.4;54.7
76044;BME280;64740;34.694;33.088;2023-05-07T19:16:52;1036.4;;;23.4;54.7
76044;BME280;64740;34.694;33.088;2023-05-07T19:21:32;1036.4;;;23.6;54.5
76044;BME280;64740;34.694;33.088;2023-05-07T19:27:08;1036.4;;;23.6;54.4
76044;BME280;64740;34.694;33.088;2023-05-07T19:31:54;1036.4;;;23.6;54.5
76044;BME280;64740;34.694;33.088;2023-05-07T19:36:32;1036.4;;;23.6;54.4
76044;BME280;64740;34.694;33.088;2023-05-07T19:41:20;1036.4;;;23.6;54.3
76044;BME280;64740;34.694;33.088;2023-05-07T19:46:44;1036.5;;;23.7;54.1
76044;BME280;64740;34.694;33.088;2023-05-07T19:51:32;1036.5;;;23.7;54
76044;BME280;64740;34.694;33.088;2023-05-07T19:56:58;1036.5;;;23.7;54
76044;BME280;64740;34.694;33.088;2023-05-07T20:01:58;1036.5;;;23.6;54
76044;BME280;64740;34.694;33.088;2023-05-07T20:06:20;1036.5;;;23.6;54
76044;BME280;64740;34.694;33.088;2023-05-07T20:12:06;1036.5;;;23.6;54
76044;BME280;64740;34.694;33.088;2023-05-07T20:16:42;1036.5;;;23.6;53.9
76044;BME280;64740;34.694;33.088;2023-05-07T20:21:32;1036.5;;;23.7;53.8
76044;BME280;64740;34.694;33.088;2023-05-07T20:26:48;1036.5;;;23.7;53.7
76044;BME280;64740;34.694;33.088;2023-05-07T20:32:06;1036.6;;;23.6;53.8
76044;BME280;64740;34.694;33.088;2023-05-07T20:36:32;1036.6;;;23.4;54
76044;BME280;64740;34.694;33.088;2023-05-07T20:41:54;1036.6;;;23.3;54.1
76044;BME280;64740;34.694;33.088;2023-05-07T20:46:50;1036.7;;;23.2;54.2
76044;BME280;64740;34.694;33.088;2023-05-07T20:51:58;1036.8;;;23.2;54.3
76044;BME280;64740;34.694;33.088;2023-05-07T20:56:38;1036.8;;;23.1;54.3
76044;BME280;64740;34.694;33.088;2023-05-07T21:01:32;1036.8;;;23.1;54.4
76044;BME280;64740;34.694;33.088;2023-05-07T21:07:06;1036.8;;;23.1;54.5
76044;BME280;64740;34.694;33.088;2023-05-07T21:12:06;1036.8;;;23.1;54.4
76044;BME280;64740;34.694;33.088;2023-05-07T21:16:32;1036.9;;;23;54.4
76044;BME280;64740;34.694;33.088;2023-05-07T21:22:06;1036.9;;;23;54.4
76044;BME280;64740;34.694;33.088;2023-05-07T21:26:20;1037;;;22.9;54.5
76044;BME280;64740;34.694;33.088;2023-05-07T21:31:32;1036.9;;;22.9;54.6
76044;BME280;64740;34.694;33.088;2023-05-07T21:36:46;1036.9;;;22.9;54.7
76044;BME280;64740;34.694;33.088;2023-05-07T21:42:06;1037;;;22.9;54.7
76044;BME280;64740;34.694;33.088;2023-05-07T21:46:42;1037;;;22.9;54.7
76044;BME280;64740;34.694;33.088;2023-05-07T21:51:36;1037;;;22.9;54.5
76044;BME280;64740;34.694;33.088;2023-05-07T21:57:06;1036.9;;;22.9;54.5
76044;BME280;64740;34.694;33.088;2023-05-07T22:01:32;1036.9;;;22.8;54.4
76044;BME280;64740;34.694;33.088;2023-05-07T22:06:36;1036.8;;;22.8;54.5
76044;BME280;64740;34.694;33.088;2023-05-07T22:11:42;1036.9;;;22.6;54.8
76044;BME280;64740;34.694;33.088;2023-05-07T22:17:02;1036.9;;;22.6;54.9
76044;BME280;64740;34.694;33.088;2023-05-07T22:21:50;1036.9;;;22.6;55
76044;BME280;64740;34.694;33.088;2023-05-07T22:26:42;1036.8;;;22.6;54.8
76044;BME280;64740;34.694;33.088;2023-05-07T22:31:46;1036.8;;;22.7;54.7
76044;BME280;64740;34.694;33.088;2023-05-07T22:36:54;1036.8;;;22.7;54.6
76044;BME280;64740;34.694;33.088;2023-05-07T22:41:20;1036.7;;;22.6;54.7
76044;BME280;64740;34.694;33.088;2023-05-07T22:46:46;1036.7;;;22.5;54.9
76044;BME280;64740;34.694;33.088;2023-05-07T22:51:38;1036.7;;;22.4;55
76044;BME280;64740;34.694;33.088;2023-05-07T22:56:26;1036.6;;;22.5;55
76044;BME280;64740;34.694;33.088;2023-05-07T23:02:06;1036.6;;;22.5;55
76044;BME280;64740;34.694;33.088;2023-05-07T23:06:58;1036.6;;;22.5;55
76044;BME280;64740;34.694;33.088;2023-05-07T23:11:20;1036.6;;;22.5;55.1
76044;BME280;64740;34.694;33.088;2023-05-07T23:17:06;1036.5;;;22.5;55.1
76044;BME280;64740;34.694;33.088;2023-05-07T23:21:42;1036.5;;;22.5;55.2
76044;BME280;64740;34.694;33.088;2023-05-07T23:26:32;1036.4;;;22.5;55.1
76044;BME280;64740;34.694;33.088;2023-05-07T23:31:54;1036.4;;;22.6;54.9
76044;BME280;64740;34.694;33.088;2023-05-07T23:36:52;1036.4;;;22.6;54.9
76044;BME280;64740;34.694;33.088;2023-05-07T23:41:20;1036.3;;;22.6;54.7
76044;BME280;64740;34.694;33.088;2023-05-07T23:46:22;1036.3;;;22.6;54.8
76044;BME280;64740;34.694;33.088;2023-05-07T23:51:52;1036.3;;;22.7;54.7
76044;BME280;64740;34.694;33.088;2023-05-07T23:56:58;1036.3;;;22.7;54.6
